sensor_id;sensor_type;location;lat;lon;timestamp;P1;durP1;ratioP1;P2;durP2;ratioP2
71320;SDS011;59118;54.322;18.576;2022-12-29T00:01:41;14.18;;;6.55;;
71320;SDS011;59118;54.322;18.576;2022-12-29T00:04:09;12.93;;;6.63;;
71320;SDS011;59118;54.322;18.576;2022-12-29T00:06:41;14.40;;;6.95;;
71320;SDS011;59118;54.322;18.576;2022-12-29T00:09:10;14.88;;;7.55;;
71320;SDS011;59118;54.322;18.576;2022-12-29T00:11:38;9.67;;;5.50;;
71320;SDS011;59118;54.322;18.576;2022-12-29T00:14:08;8.88;;;4.85;;
71320;SDS011;59118;54.322;18.576;2022-12-29T00:16:54;16.40;;;6.53;;
71320;SDS011;59118;54.322;18.576;2022-12-29T00:19:24;16.38;;;5.70;;
71320;SDS011;59118;54.322;18.576;2022-12-29T00:22:09;11.95;;;6.07;;
71320;SDS011;59118;54.322;18.576;2022-12-29T00:24:56;17.17;;;6.77;;
71320;SDS011;59118;54.322;18.576;2022-12-29T00:27:31;11.20;;;5.88;;
71320;SDS011;59118;54.322;18.576;2022-12-29T00:30:18;15.00;;;4.90;;
71320;SDS011;59118;54.322;18.576;2022-12-29T00:33:09;6.90;;;3.92;;
71320;SDS011;59118;54.322;18.576;2022-12-29T00:36:02;9.05;;;5.07;;
71320;SDS011;59118;54.322;18.576;2022-12-29T00:38:49;9.23;;;4.60;;
71320;SDS011;59118;54.322;18.576;2022-12-29T00:41:38;8.38;;;4.10;;
71320;SDS011;59118;54.322;18.576;2022-12-29T00:44:26;7.95;;;3.83;;
71320;SDS011;59118;54.322;18.576;2022-12-29T00:46:54;4.60;;;2.35;;
71320;SDS011;59118;54.322;18.576;2022-12-29T00:49:20;6.55;;;3.45;;
71320;SDS011;59118;54.322;18.576;2022-12-29T00:52:01;2.77;;;1.30;;
71320;SDS011;59118;54.322;18.576;2022-12-29T00:54:30;8.35;;;3.97;;
71320;SDS011;59118;54.322;18.576;2022-12-29T00:56:59;4.55;;;2.83;;
71320;SDS011;59118;54.322;18.576;2022-12-29T00:59:26;7.00;;;3.80;;
71320;SDS011;59118;54.322;18.576;2022-12-29T01:01:53;9.45;;;3.65;;
71320;SDS011;59118;54.322;18.576;2022-12-29T01:04:21;5.73;;;3.07;;
71320;SDS011;59118;54.322;18.576;2022-12-29T01:06:50;7.70;;;3.45;;
71320;SDS011;59118;54.322;18.576;2022-12-29T01:09:17;4.50;;;2.50;;
71320;SDS011;59118;54.322;18.576;2022-12-29T01:12:03;6.97;;;2.90;;
71320;SDS011;59118;54.322;18.576;2022-12-29T01:14:30;8.02;;;3.45;;
71320;SDS011;59118;54.322;18.576;2022-12-29T01:16:57;7.73;;;3.67;;
71320;SDS011;59118;54.322;18.576;2022-12-29T01:19:24;6.40;;;3.28;;
71320;SDS011;59118;54.322;18.576;2022-12-29T01:21:51;5.72;;;2.60;;
71320;SDS011;59118;54.322;18.576;2022-12-29T01:24:18;6.72;;;3.33;;
71320;SDS011;59118;54.322;18.576;2022-12-29T01:26:47;7.55;;;3.67;;
71320;SDS011;59118;54.322;18.576;2022-12-29T01:29:14;8.80;;;3.40;;
71320;SDS011;59118;54.322;18.576;2022-12-29T01:31:42;5.93;;;2.83;;
71320;SDS011;59118;54.322;18.576;2022-12-29T01:34:09;9.02;;;3.08;;
71320;SDS011;59118;54.322;18.576;2022-12-29T01:36:35;6.40;;;2.92;;
71320;SDS011;59118;54.322;18.576;2022-12-29T01:39:02;7.35;;;3.90;;
71320;SDS011;59118;54.322;18.576;2022-12-29T01:41:29;5.43;;;2.43;;
71320;SDS011;59118;54.322;18.576;2022-12-29T01:43:57;5.85;;;2.85;;
71320;SDS011;59118;54.322;18.576;2022-12-29T01:46:26;6.20;;;3.40;;
71320;SDS011;59118;54.322;18.576;2022-12-29T01:48:59;6.78;;;3.25;;
71320;SDS011;59118;54.322;18.576;2022-12-29T01:51:33;4.90;;;2.60;;
71320;SDS011;59118;54.322;18.576;2022-12-29T01:54:02;7.73;;;3.30;;
71320;SDS011;59118;54.322;18.576;2022-12-29T01:56:32;4.78;;;2.35;;
71320;SDS011;59118;54.322;18.576;2022-12-29T01:59:04;7.43;;;3.00;;
71320;SDS011;59118;54.322;18.576;2022-12-29T02:01:33;7.82;;;3.35;;
71320;SDS011;59118;54.322;18.576;2022-12-29T02:04:00;6.00;;;2.80;;
71320;SDS011;59118;54.322;18.576;2022-12-29T02:06:34;3.87;;;2.07;;
71320;SDS011;59118;54.322;18.576;2022-12-29T02:09:03;4.38;;;1.95;;
71320;SDS011;59118;54.322;18.576;2022-12-29T02:11:30;5.65;;;2.28;;
71320;SDS011;59118;54.322;18.576;2022-12-29T02:13:57;7.05;;;2.33;;
71320;SDS011;59118;54.322;18.576;2022-12-29T02:16:30;7.25;;;2.40;;
71320;SDS011;59118;54.322;18.576;2022-12-29T02:38:03;5.40;;;2.90;;
71320;SDS011;59118;54.322;18.576;2022-12-29T02:43:26;4.95;;;2.42;;
71320;SDS011;59118;54.322;18.576;2022-12-29T02:46:10;4.70;;;1.87;;
71320;SDS011;59118;54.322;18.576;2022-12-29T02:54:28;5.65;;;2.33;;
71320;SDS011;59118;54.322;18.576;2022-12-29T02:59:53;5.63;;;2.50;;
71320;SDS011;59118;54.322;18.576;2022-12-29T03:05:35;2.25;;;1.13;;
71320;SDS011;59118;54.322;18.576;2022-12-29T03:11:23;5.82;;;3.25;;
71320;SDS011;59118;54.322;18.576;2022-12-29T03:16:59;6.63;;;3.58;;
71320;SDS011;59118;54.322;18.576;2022-12-29T03:19:30;6.07;;;2.83;;
71320;SDS011;59118;54.322;18.576;2022-12-29T03:24:58;6.95;;;2.90;;
71320;SDS011;59118;54.322;18.576;2022-12-29T03:27:39;5.63;;;2.90;;
71320;SDS011;59118;54.322;18.576;2022-12-29T03:30:09;6.93;;;3.50;;
71320;SDS011;59118;54.322;18.576;2022-12-29T03:32:46;7.43;;;3.75;;
71320;SDS011;59118;54.322;18.576;2022-12-29T03:35:16;5.47;;;2.95;;
71320;SDS011;59118;54.322;18.576;2022-12-29T03:37:50;7.53;;;3.75;;
71320;SDS011;59118;54.322;18.576;2022-12-29T03:40:38;6.70;;;3.57;;
71320;SDS011;59118;54.322;18.576;2022-12-29T03:43:07;6.78;;;3.45;;
71320;SDS011;59118;54.322;18.576;2022-12-29T03:45:36;7.18;;;3.53;;
71320;SDS011;59118;54.322;18.576;2022-12-29T03:48:03;7.35;;;3.58;;
71320;SDS011;59118;54.322;18.576;2022-12-29T03:50:30;8.63;;;4.75;;
71320;SDS011;59118;54.322;18.576;2022-12-29T03:52:56;10.07;;;4.83;;
71320;SDS011;59118;54.322;18.576;2022-12-29T03:55:23;9.80;;;5.30;;
71320;SDS011;59118;54.322;18.576;2022-12-29T03:57:50;8.35;;;4.78;;
71320;SDS011;59118;54.322;18.576;2022-12-29T04:00:16;11.63;;;5.85;;
71320;SDS011;59118;54.322;18.576;2022-12-29T04:02:48;11.70;;;5.75;;
71320;SDS011;59118;54.322;18.576;2022-12-29T04:05:15;8.07;;;4.53;;
71320;SDS011;59118;54.322;18.576;2022-12-29T04:07:41;8.52;;;4.70;;
71320;SDS011;59118;54.322;18.576;2022-12-29T04:10:08;13.73;;;6.97;;
71320;SDS011;59118;54.322;18.576;2022-12-29T04:12:35;11.02;;;6.45;;
71320;SDS011;59118;54.322;18.576;2022-12-29T04:15:02;13.10;;;6.53;;
71320;SDS011;59118;54.322;18.576;2022-12-29T04:17:29;10.30;;;6.37;;
71320;SDS011;59118;54.322;18.576;2022-12-29T04:19:55;12.98;;;7.47;;
71320;SDS011;59118;54.322;18.576;2022-12-29T04:22:42;8.07;;;4.75;;
71320;SDS011;59118;54.322;18.576;2022-12-29T04:25:09;13.70;;;7.78;;
71320;SDS011;59118;54.322;18.576;2022-12-29T04:27:35;12.80;;;6.30;;
71320;SDS011;59118;54.322;18.576;2022-12-29T04:30:02;14.93;;;7.87;;
71320;SDS011;59118;54.322;18.576;2022-12-29T04:32:32;18.75;;;5.35;;
71320;SDS011;59118;54.322;18.576;2022-12-29T04:35:01;11.30;;;6.32;;
71320;SDS011;59118;54.322;18.576;2022-12-29T04:37:27;10.13;;;5.65;;
71320;SDS011;59118;54.322;18.576;2022-12-29T04:39:54;14.88;;;6.85;;
71320;SDS011;59118;54.322;18.576;2022-12-29T04:42:20;13.03;;;6.87;;
71320;SDS011;59118;54.322;18.576;2022-12-29T04:44:47;11.07;;;6.68;;
71320;SDS011;59118;54.322;18.576;2022-12-29T04:47:14;16.23;;;7.57;;
71320;SDS011;59118;54.322;18.576;2022-12-29T04:49:40;11.40;;;6.18;;
71320;SDS011;59118;54.322;18.576;2022-12-29T04:52:07;9.68;;;5.57;;
71320;SDS011;59118;54.322;18.576;2022-12-29T04:54:35;13.77;;;5.77;;
71320;SDS011;59118;54.322;18.576;2022-12-29T04:57:08;13.15;;;5.05;;
71320;SDS011;59118;54.322;18.576;2022-12-29T04:59:35;14.60;;;7.22;;
71320;SDS011;59118;54.322;18.576;2022-12-29T05:02:01;13.13;;;7.15;;
71320;SDS011;59118;54.322;18.576;2022-12-29T05:04:28;14.20;;;7.40;;
71320;SDS011;59118;54.322;18.576;2022-12-29T05:06:55;13.53;;;7.17;;
71320;SDS011;59118;54.322;18.576;2022-12-29T05:09:21;12.75;;;6.85;;
71320;SDS011;59118;54.322;18.576;2022-12-29T05:11:48;15.25;;;6.97;;
71320;SDS011;59118;54.322;18.576;2022-12-29T05:14:15;11.57;;;5.03;;
71320;SDS011;59118;54.322;18.576;2022-12-29T05:16:43;12.38;;;6.70;;
71320;SDS011;59118;54.322;18.576;2022-12-29T05:19:10;13.57;;;7.57;;
71320;SDS011;59118;54.322;18.576;2022-12-29T05:21:36;13.32;;;6.78;;
71320;SDS011;59118;54.322;18.576;2022-12-29T05:24:03;14.43;;;6.57;;
71320;SDS011;59118;54.322;18.576;2022-12-29T05:26:30;9.90;;;5.07;;
71320;SDS011;59118;54.322;18.576;2022-12-29T05:28:57;12.40;;;5.30;;
71320;SDS011;59118;54.322;18.576;2022-12-29T05:31:24;15.37;;;5.97;;
71320;SDS011;59118;54.322;18.576;2022-12-29T05:33:51;11.95;;;4.20;;
71320;SDS011;59118;54.322;18.576;2022-12-29T05:36:17;12.23;;;6.85;;
71320;SDS011;59118;54.322;18.576;2022-12-29T05:38:44;11.90;;;6.22;;
71320;SDS011;59118;54.322;18.576;2022-12-29T05:41:11;6.13;;;3.30;;
71320;SDS011;59118;54.322;18.576;2022-12-29T05:43:37;14.10;;;6.53;;
71320;SDS011;59118;54.322;18.576;2022-12-29T05:46:05;12.43;;;5.22;;
71320;SDS011;59118;54.322;18.576;2022-12-29T05:48:32;12.13;;;5.97;;
71320;SDS011;59118;54.322;18.576;2022-12-29T05:51:06;15.38;;;6.03;;
71320;SDS011;59118;54.322;18.576;2022-12-29T05:53:33;12.25;;;6.68;;
71320;SDS011;59118;54.322;18.576;2022-12-29T05:55:59;11.60;;;6.27;;
71320;SDS011;59118;54.322;18.576;2022-12-29T05:58:26;9.90;;;5.18;;
71320;SDS011;59118;54.322;18.576;2022-12-29T06:00:53;14.73;;;7.03;;
71320;SDS011;59118;54.322;18.576;2022-12-29T06:03:20;11.88;;;5.53;;
71320;SDS011;59118;54.322;18.576;2022-12-29T06:05:47;12.48;;;7.18;;
71320;SDS011;59118;54.322;18.576;2022-12-29T06:08:14;11.37;;;6.07;;
71320;SDS011;59118;54.322;18.576;2022-12-29T06:10:42;7.30;;;3.85;;
71320;SDS011;59118;54.322;18.576;2022-12-29T06:13:12;11.57;;;6.22;;
71320;SDS011;59118;54.322;18.576;2022-12-29T06:15:40;15.38;;;6.43;;
71320;SDS011;59118;54.322;18.576;2022-12-29T06:18:07;10.88;;;5.25;;
71320;SDS011;59118;54.322;18.576;2022-12-29T06:20:34;10.20;;;5.37;;
71320;SDS011;59118;54.322;18.576;2022-12-29T06:23:00;8.93;;;4.13;;
71320;SDS011;59118;54.322;18.576;2022-12-29T06:25:27;6.90;;;3.95;;
71320;SDS011;59118;54.322;18.576;2022-12-29T06:27:57;15.90;;;6.90;;
71320;SDS011;59118;54.322;18.576;2022-12-29T06:30:25;8.93;;;4.38;;
71320;SDS011;59118;54.322;18.576;2022-12-29T06:32:52;12.30;;;6.40;;
71320;SDS011;59118;54.322;18.576;2022-12-29T06:35:19;11.60;;;5.35;;
71320;SDS011;59118;54.322;18.576;2022-12-29T06:37:45;14.55;;;7.07;;
71320;SDS011;59118;54.322;18.576;2022-12-29T06:40:12;11.20;;;5.53;;
71320;SDS011;59118;54.322;18.576;2022-12-29T06:42:39;9.90;;;5.32;;
71320;SDS011;59118;54.322;18.576;2022-12-29T06:45:06;9.97;;;4.77;;
71320;SDS011;59118;54.322;18.576;2022-12-29T06:47:34;10.75;;;4.95;;
71320;SDS011;59118;54.322;18.576;2022-12-29T06:50:01;11.70;;;5.03;;
71320;SDS011;59118;54.322;18.576;2022-12-29T06:52:29;11.43;;;6.13;;
71320;SDS011;59118;54.322;18.576;2022-12-29T06:54:59;13.52;;;7.40;;
71320;SDS011;59118;54.322;18.576;2022-12-29T06:57:58;10.87;;;6.03;;
71320;SDS011;59118;54.322;18.576;2022-12-29T07:00:27;10.65;;;4.88;;
71320;SDS011;59118;54.322;18.576;2022-12-29T07:02:54;14.43;;;7.40;;
71320;SDS011;59118;54.322;18.576;2022-12-29T07:05:22;13.40;;;5.93;;
71320;SDS011;59118;54.322;18.576;2022-12-29T07:07:49;12.00;;;5.70;;
71320;SDS011;59118;54.322;18.576;2022-12-29T07:10:16;13.00;;;6.70;;
71320;SDS011;59118;54.322;18.576;2022-12-29T07:12:43;11.77;;;6.18;;
71320;SDS011;59118;54.322;18.576;2022-12-29T07:15:10;14.18;;;6.00;;
71320;SDS011;59118;54.322;18.576;2022-12-29T07:17:36;11.38;;;6.25;;
71320;SDS011;59118;54.322;18.576;2022-12-29T07:20:03;10.82;;;5.95;;
71320;SDS011;59118;54.322;18.576;2022-12-29T07:22:31;10.43;;;6.07;;
71320;SDS011;59118;54.322;18.576;2022-12-29T07:24:57;9.15;;;5.07;;
71320;SDS011;59118;54.322;18.576;2022-12-29T07:27:24;15.25;;;6.72;;
71320;SDS011;59118;54.322;18.576;2022-12-29T07:29:51;12.57;;;6.60;;
71320;SDS011;59118;54.322;18.576;2022-12-29T07:32:20;12.55;;;6.57;;
71320;SDS011;59118;54.322;18.576;2022-12-29T07:34:46;11.53;;;5.53;;
71320;SDS011;59118;54.322;18.576;2022-12-29T07:37:16;11.60;;;5.90;;
71320;SDS011;59118;54.322;18.576;2022-12-29T07:39:47;12.57;;;5.45;;
71320;SDS011;59118;54.322;18.576;2022-12-29T07:42:14;11.48;;;5.32;;
71320;SDS011;59118;54.322;18.576;2022-12-29T07:44:42;10.63;;;6.25;;
71320;SDS011;59118;54.322;18.576;2022-12-29T07:47:10;12.37;;;6.20;;
71320;SDS011;59118;54.322;18.576;2022-12-29T07:49:36;9.05;;;5.03;;
71320;SDS011;59118;54.322;18.576;2022-12-29T07:52:03;7.47;;;3.65;;
71320;SDS011;59118;54.322;18.576;2022-12-29T07:54:30;14.40;;;7.57;;
71320;SDS011;59118;54.322;18.576;2022-12-29T07:56:57;11.63;;;5.00;;
71320;SDS011;59118;54.322;18.576;2022-12-29T07:59:26;12.67;;;6.83;;
71320;SDS011;59118;54.322;18.576;2022-12-29T08:01:53;13.00;;;6.63;;
71320;SDS011;59118;54.322;18.576;2022-12-29T08:04:19;11.68;;;5.97;;
71320;SDS011;59118;54.322;18.576;2022-12-29T08:06:47;12.50;;;6.50;;
71320;SDS011;59118;54.322;18.576;2022-12-29T08:09:17;9.18;;;5.05;;
71320;SDS011;59118;54.322;18.576;2022-12-29T08:11:49;11.27;;;6.30;;
71320;SDS011;59118;54.322;18.576;2022-12-29T08:14:16;11.95;;;5.65;;
71320;SDS011;59118;54.322;18.576;2022-12-29T08:16:44;14.98;;;7.13;;
71320;SDS011;59118;54.322;18.576;2022-12-29T08:19:12;12.82;;;5.82;;
71320;SDS011;59118;54.322;18.576;2022-12-29T08:21:39;13.48;;;7.55;;
71320;SDS011;59118;54.322;18.576;2022-12-29T08:24:08;14.90;;;6.00;;
71320;SDS011;59118;54.322;18.576;2022-12-29T08:26:34;15.52;;;6.63;;
71320;SDS011;59118;54.322;18.576;2022-12-29T08:29:01;9.18;;;4.57;;
71320;SDS011;59118;54.322;18.576;2022-12-29T08:31:28;12.95;;;6.32;;
71320;SDS011;59118;54.322;18.576;2022-12-29T08:33:55;7.60;;;3.80;;
71320;SDS011;59118;54.322;18.576;2022-12-29T08:36:21;10.13;;;5.30;;
71320;SDS011;59118;54.322;18.576;2022-12-29T08:38:48;10.48;;;5.03;;
71320;SDS011;59118;54.322;18.576;2022-12-29T08:41:15;12.90;;;6.43;;
71320;SDS011;59118;54.322;18.576;2022-12-29T08:43:44;12.63;;;6.50;;
71320;SDS011;59118;54.322;18.576;2022-12-29T08:46:12;12.70;;;7.13;;
71320;SDS011;59118;54.322;18.576;2022-12-29T08:48:39;13.43;;;7.10;;
71320;SDS011;59118;54.322;18.576;2022-12-29T08:51:06;14.25;;;6.30;;
71320;SDS011;59118;54.322;18.576;2022-12-29T08:53:34;12.52;;;7.20;;
71320;SDS011;59118;54.322;18.576;2022-12-29T08:56:03;10.27;;;6.13;;
71320;SDS011;59118;54.322;18.576;2022-12-29T08:58:32;11.10;;;5.68;;
71320;SDS011;59118;54.322;18.576;2022-12-29T09:00:59;10.47;;;5.97;;
71320;SDS011;59118;54.322;18.576;2022-12-29T09:03:29;12.38;;;6.68;;
71320;SDS011;59118;54.322;18.576;2022-12-29T09:06:27;13.77;;;6.80;;
71320;SDS011;59118;54.322;18.576;2022-12-29T09:08:54;7.88;;;4.13;;
71320;SDS011;59118;54.322;18.576;2022-12-29T09:11:27;15.38;;;8.20;;
71320;SDS011;59118;54.322;18.576;2022-12-29T09:13:54;13.50;;;5.53;;
71320;SDS011;59118;54.322;18.576;2022-12-29T09:16:21;10.38;;;5.95;;
71320;SDS011;59118;54.322;18.576;2022-12-29T09:18:49;13.73;;;6.07;;
71320;SDS011;59118;54.322;18.576;2022-12-29T09:21:16;8.38;;;4.60;;
71320;SDS011;59118;54.322;18.576;2022-12-29T09:23:43;13.68;;;6.95;;
71320;SDS011;59118;54.322;18.576;2022-12-29T09:26:10;9.63;;;4.67;;
71320;SDS011;59118;54.322;18.576;2022-12-29T09:28:38;11.60;;;5.85;;
71320;SDS011;59118;54.322;18.576;2022-12-29T09:31:04;12.60;;;6.10;;
71320;SDS011;59118;54.322;18.576;2022-12-29T09:33:31;15.95;;;8.07;;
71320;SDS011;59118;54.322;18.576;2022-12-29T09:36:02;13.05;;;6.40;;
71320;SDS011;59118;54.322;18.576;2022-12-29T09:38:28;11.07;;;6.23;;
71320;SDS011;59118;54.322;18.576;2022-12-29T09:41:11;12.57;;;7.20;;
71320;SDS011;59118;54.322;18.576;2022-12-29T09:46:43;12.38;;;5.45;;
71320;SDS011;59118;54.322;18.576;2022-12-29T09:49:21;12.93;;;6.82;;
71320;SDS011;59118;54.322;18.576;2022-12-29T09:55:13;10.57;;;5.53;;
71320;SDS011;59118;54.322;18.576;2022-12-29T10:00:33;11.95;;;6.10;;
71320;SDS011;59118;54.322;18.576;2022-12-29T10:03:20;9.35;;;5.10;;
71320;SDS011;59118;54.322;18.576;2022-12-29T10:06:09;9.27;;;4.80;;
71320;SDS011;59118;54.322;18.576;2022-12-29T10:08:47;9.27;;;4.68;;
71320;SDS011;59118;54.322;18.576;2022-12-29T10:11:20;9.23;;;4.72;;
71320;SDS011;59118;54.322;18.576;2022-12-29T10:24:59;11.85;;;5.35;;
71320;SDS011;59118;54.322;18.576;2022-12-29T10:27:38;10.60;;;5.55;;
71320;SDS011;59118;54.322;18.576;2022-12-29T10:30:10;10.05;;;5.07;;
71320;SDS011;59118;54.322;18.576;2022-12-29T10:32:49;8.83;;;4.40;;
71320;SDS011;59118;54.322;18.576;2022-12-29T10:35:34;10.73;;;5.32;;
71320;SDS011;59118;54.322;18.576;2022-12-29T10:38:19;9.57;;;4.88;;
71320;SDS011;59118;54.322;18.576;2022-12-29T10:41:17;11.02;;;5.05;;
71320;SDS011;59118;54.322;18.576;2022-12-29T10:43:51;8.00;;;4.13;;
71320;SDS011;59118;54.322;18.576;2022-12-29T10:46:21;8.77;;;4.73;;
71320;SDS011;59118;54.322;18.576;2022-12-29T10:48:51;9.38;;;4.80;;
71320;SDS011;59118;54.322;18.576;2022-12-29T10:57:04;8.77;;;3.50;;
71320;SDS011;59118;54.322;18.576;2022-12-29T10:59:36;9.63;;;4.60;;
71320;SDS011;59118;54.322;18.576;2022-12-29T11:05:03;5.75;;;2.70;;
71320;SDS011;59118;54.322;18.576;2022-12-29T11:07:37;10.80;;;4.72;;
71320;SDS011;59118;54.322;18.576;2022-12-29T11:10:20;9.02;;;4.18;;
71320;SDS011;59118;54.322;18.576;2022-12-29T11:12:56;7.47;;;3.67;;
71320;SDS011;59118;54.322;18.576;2022-12-29T11:15:25;7.55;;;3.60;;
71320;SDS011;59118;54.322;18.576;2022-12-29T11:17:53;9.38;;;3.72;;
71320;SDS011;59118;54.322;18.576;2022-12-29T11:20:30;8.88;;;4.05;;
71320;SDS011;59118;54.322;18.576;2022-12-29T11:23:02;7.43;;;3.40;;
71320;SDS011;59118;54.322;18.576;2022-12-29T11:25:30;7.87;;;3.30;;
71320;SDS011;59118;54.322;18.576;2022-12-29T11:30:24;6.32;;;3.47;;
71320;SDS011;59118;54.322;18.576;2022-12-29T11:32:55;7.28;;;3.70;;
71320;SDS011;59118;54.322;18.576;2022-12-29T11:35:29;11.98;;;4.75;;
71320;SDS011;59118;54.322;18.576;2022-12-29T11:37:59;10.00;;;4.00;;
71320;SDS011;59118;54.322;18.576;2022-12-29T11:40:28;8.27;;;4.30;;
71320;SDS011;59118;54.322;18.576;2022-12-29T11:42:55;10.98;;;4.50;;
71320;SDS011;59118;54.322;18.576;2022-12-29T11:45:30;9.80;;;4.13;;
71320;SDS011;59118;54.322;18.576;2022-12-29T11:48:06;11.70;;;4.38;;
71320;SDS011;59118;54.322;18.576;2022-12-29T11:50:43;8.80;;;3.77;;
71320;SDS011;59118;54.322;18.576;2022-12-29T11:53:23;9.63;;;4.80;;
71320;SDS011;59118;54.322;18.576;2022-12-29T11:56:20;9.15;;;4.47;;
71320;SDS011;59118;54.322;18.576;2022-12-29T11:58:49;9.48;;;4.35;;
71320;SDS011;59118;54.322;18.576;2022-12-29T12:01:17;9.18;;;4.88;;
71320;SDS011;59118;54.322;18.576;2022-12-29T12:03:56;7.90;;;3.90;;
71320;SDS011;59118;54.322;18.576;2022-12-29T12:06:29;12.43;;;4.85;;
71320;SDS011;59118;54.322;18.576;2022-12-29T12:09:06;8.70;;;4.53;;
71320;SDS011;59118;54.322;18.576;2022-12-29T12:11:40;9.15;;;4.38;;
71320;SDS011;59118;54.322;18.576;2022-12-29T12:14:31;6.55;;;3.25;;
71320;SDS011;59118;54.322;18.576;2022-12-29T12:17:14;11.23;;;4.50;;
71320;SDS011;59118;54.322;18.576;2022-12-29T12:20:00;8.23;;;4.10;;
71320;SDS011;59118;54.322;18.576;2022-12-29T12:22:54;9.00;;;3.75;;
71320;SDS011;59118;54.322;18.576;2022-12-29T12:25:55;10.73;;;4.13;;
71320;SDS011;59118;54.322;18.576;2022-12-29T12:28:59;13.52;;;3.78;;
71320;SDS011;59118;54.322;18.576;2022-12-29T12:34:01;8.63;;;4.30;;
71320;SDS011;59118;54.322;18.576;2022-12-29T12:36:49;7.10;;;2.95;;
71320;SDS011;59118;54.322;18.576;2022-12-29T12:42:20;14.23;;;5.38;;
71320;SDS011;59118;54.322;18.576;2022-12-29T12:50:43;8.02;;;3.67;;
71320;SDS011;59118;54.322;18.576;2022-12-29T12:53:35;8.10;;;3.70;;
71320;SDS011;59118;54.322;18.576;2022-12-29T13:00:00;7.37;;;3.90;;
71320;SDS011;59118;54.322;18.576;2022-12-29T13:17:12;7.95;;;3.10;;
71320;SDS011;59118;54.322;18.576;2022-12-29T13:22:24;9.68;;;3.53;;
71320;SDS011;59118;54.322;18.576;2022-12-29T13:27:52;10.43;;;4.17;;
71320;SDS011;59118;54.322;18.576;2022-12-29T13:30:23;9.63;;;3.40;;
71320;SDS011;59118;54.322;18.576;2022-12-29T13:36:03;9.23;;;3.60;;
71320;SDS011;59118;54.322;18.576;2022-12-29T13:41:25;7.67;;;3.50;;
71320;SDS011;59118;54.322;18.576;2022-12-29T13:44:11;10.93;;;4.68;;
71320;SDS011;59118;54.322;18.576;2022-12-29T13:46:44;9.52;;;4.78;;
71320;SDS011;59118;54.322;18.576;2022-12-29T13:49:22;7.10;;;3.97;;
71320;SDS011;59118;54.322;18.576;2022-12-29T13:51:59;11.32;;;5.10;;
71320;SDS011;59118;54.322;18.576;2022-12-29T13:54:41;10.87;;;4.87;;
71320;SDS011;59118;54.322;18.576;2022-12-29T13:57:34;10.77;;;3.30;;
71320;SDS011;59118;54.322;18.576;2022-12-29T14:05:35;8.85;;;4.60;;
71320;SDS011;59118;54.322;18.576;2022-12-29T14:08:02;5.80;;;3.37;;
71320;SDS011;59118;54.322;18.576;2022-12-29T14:10:38;8.85;;;3.63;;
71320;SDS011;59118;54.322;18.576;2022-12-29T14:13:19;8.10;;;4.07;;
71320;SDS011;59118;54.322;18.576;2022-12-29T14:15:51;12.70;;;5.45;;
71320;SDS011;59118;54.322;18.576;2022-12-29T14:18:24;10.93;;;5.47;;
71320;SDS011;59118;54.322;18.576;2022-12-29T14:20:53;8.47;;;4.30;;
71320;SDS011;59118;54.322;18.576;2022-12-29T14:28:31;7.88;;;3.90;;
71320;SDS011;59118;54.322;18.576;2022-12-29T14:30:59;11.85;;;4.53;;
71320;SDS011;59118;54.322;18.576;2022-12-29T14:33:29;8.90;;;3.47;;
71320;SDS011;59118;54.322;18.576;2022-12-29T14:35:58;10.88;;;4.75;;
71320;SDS011;59118;54.322;18.576;2022-12-29T14:39:02;13.45;;;4.07;;
71320;SDS011;59118;54.322;18.576;2022-12-29T14:41:30;5.90;;;2.90;;
71320;SDS011;59118;54.322;18.576;2022-12-29T14:44:00;10.13;;;3.63;;
71320;SDS011;59118;54.322;18.576;2022-12-29T14:46:42;8.43;;;3.60;;
71320;SDS011;59118;54.322;18.576;2022-12-29T14:49:16;9.15;;;3.50;;
71320;SDS011;59118;54.322;18.576;2022-12-29T14:51:45;8.65;;;3.60;;
71320;SDS011;59118;54.322;18.576;2022-12-29T14:54:58;10.18;;;3.45;;
71320;SDS011;59118;54.322;18.576;2022-12-29T14:57:03;10.00;;;3.75;;
71320;SDS011;59118;54.322;18.576;2022-12-29T14:59:32;9.57;;;4.60;;
71320;SDS011;59118;54.322;18.576;2022-12-29T15:02:00;10.65;;;3.90;;
71320;SDS011;59118;54.322;18.576;2022-12-29T15:04:30;8.27;;;3.47;;
71320;SDS011;59118;54.322;18.576;2022-12-29T15:06:58;12.65;;;4.18;;
71320;SDS011;59118;54.322;18.576;2022-12-29T15:09:30;8.68;;;4.10;;
71320;SDS011;59118;54.322;18.576;2022-12-29T15:14:52;7.95;;;3.63;;
71320;SDS011;59118;54.322;18.576;2022-12-29T15:19:52;9.93;;;3.78;;
71320;SDS011;59118;54.322;18.576;2022-12-29T15:22:20;13.73;;;4.78;;
71320;SDS011;59118;54.322;18.576;2022-12-29T15:24:47;11.50;;;4.97;;
71320;SDS011;59118;54.322;18.576;2022-12-29T15:27:20;8.77;;;4.00;;
71320;SDS011;59118;54.322;18.576;2022-12-29T15:29:54;9.00;;;4.13;;
71320;SDS011;59118;54.322;18.576;2022-12-29T15:32:26;10.02;;;3.85;;
71320;SDS011;59118;54.322;18.576;2022-12-29T15:34:54;9.02;;;3.50;;
71320;SDS011;59118;54.322;18.576;2022-12-29T15:37:25;8.63;;;3.70;;
71320;SDS011;59118;54.322;18.576;2022-12-29T15:39:59;9.90;;;4.03;;
71320;SDS011;59118;54.322;18.576;2022-12-29T15:44:58;11.45;;;4.57;;
71320;SDS011;59118;54.322;18.576;2022-12-29T15:47:36;9.35;;;3.38;;
71320;SDS011;59118;54.322;18.576;2022-12-29T15:50:07;11.97;;;4.80;;
71320;SDS011;59118;54.322;18.576;2022-12-29T15:52:49;8.23;;;3.40;;
71320;SDS011;59118;54.322;18.576;2022-12-29T15:55:20;10.57;;;3.85;;
71320;SDS011;59118;54.322;18.576;2022-12-29T15:58:01;10.50;;;4.15;;
71320;SDS011;59118;54.322;18.576;2022-12-29T16:00:30;11.00;;;4.57;;
71320;SDS011;59118;54.322;18.576;2022-12-29T16:03:03;7.43;;;3.33;;
71320;SDS011;59118;54.322;18.576;2022-12-29T16:05:32;10.13;;;3.55;;
71320;SDS011;59118;54.322;18.576;2022-12-29T16:08:00;10.73;;;4.15;;
71320;SDS011;59118;54.322;18.576;2022-12-29T16:13:41;15.43;;;4.90;;
71320;SDS011;59118;54.322;18.576;2022-12-29T16:15:55;9.60;;;4.57;;
71320;SDS011;59118;54.322;18.576;2022-12-29T16:18:26;9.35;;;4.20;;
71320;SDS011;59118;54.322;18.576;2022-12-29T16:21:01;9.30;;;4.20;;
71320;SDS011;59118;54.322;18.576;2022-12-29T16:23:31;10.60;;;3.65;;
71320;SDS011;59118;54.322;18.576;2022-12-29T16:25:59;11.80;;;4.88;;
71320;SDS011;59118;54.322;18.576;2022-12-29T16:28:34;9.93;;;4.37;;
71320;SDS011;59118;54.322;18.576;2022-12-29T16:31:21;14.55;;;4.93;;
71320;SDS011;59118;54.322;18.576;2022-12-29T16:33:52;12.40;;;4.15;;
71320;SDS011;59118;54.322;18.576;2022-12-29T16:36:23;15.63;;;4.57;;
71320;SDS011;59118;54.322;18.576;2022-12-29T16:39:02;13.43;;;4.90;;
71320;SDS011;59118;54.322;18.576;2022-12-29T16:41:38;10.13;;;4.27;;
71320;SDS011;59118;54.322;18.576;2022-12-29T16:44:38;12.68;;;5.03;;
71320;SDS011;59118;54.322;18.576;2022-12-29T16:47:15;13.20;;;5.50;;
71320;SDS011;59118;54.322;18.576;2022-12-29T16:49:46;9.02;;;3.47;;
71320;SDS011;59118;54.322;18.576;2022-12-29T16:52:19;11.18;;;3.65;;
71320;SDS011;59118;54.322;18.576;2022-12-29T16:54:52;10.37;;;3.70;;
71320;SDS011;59118;54.322;18.576;2022-12-29T16:57:23;8.82;;;3.13;;
71320;SDS011;59118;54.322;18.576;2022-12-29T16:59:52;6.53;;;2.15;;
71320;SDS011;59118;54.322;18.576;2022-12-29T17:02:20;6.90;;;2.20;;
71320;SDS011;59118;54.322;18.576;2022-12-29T17:04:48;6.53;;;2.38;;
71320;SDS011;59118;54.322;18.576;2022-12-29T17:07:26;6.57;;;2.40;;
71320;SDS011;59118;54.322;18.576;2022-12-29T17:09:53;8.82;;;2.80;;
71320;SDS011;59118;54.322;18.576;2022-12-29T17:12:21;8.57;;;2.97;;